createdAt,value
2022-08-21T00:00:54.585Z,0.00
2022-08-21T00:01:54.621Z,0.00
2022-08-21T00:02:54.569Z,0.00
2022-08-21T00:03:54.438Z,0.00
2022-08-21T00:04:57.588Z,0.00
2022-08-21T00:05:54.349Z,0.00
2022-08-21T00:06:54.293Z,0.00
2022-08-21T00:07:54.246Z,0.00
2022-08-21T00:08:54.196Z,0.00
2022-08-21T00:09:54.145Z,0.00
2022-08-21T00:10:54.099Z,0.00
2022-08-21T00:11:54.050Z,0.00
2022-08-21T00:12:54.003Z,0.00
2022-08-21T00:13:53.957Z,0.00
2022-08-21T00:14:56.964Z,0.00
2022-08-21T00:15:53.863Z,0.00
2022-08-21T00:16:53.806Z,0.00
2022-08-21T00:17:53.765Z,0.00
2022-08-21T00:18:53.712Z,0.00
2022-08-21T00:19:53.659Z,0.00
2022-08-21T00:20:53.610Z,0.00
2022-08-21T00:21:53.561Z,0.00
2022-08-21T00:22:53.514Z,0.00
2022-08-21T00:23:53.467Z,0.00
2022-08-21T00:24:53.430Z,0.00
2022-08-21T00:25:53.369Z,0.00
2022-08-21T00:26:53.319Z,0.00
2022-08-21T00:27:53.282Z,0.00
2022-08-21T00:28:53.221Z,0.00
2022-08-21T00:29:53.173Z,0.00
2022-08-21T00:30:53.126Z,0.00
2022-08-21T00:31:53.076Z,0.00
2022-08-21T00:32:53.026Z,0.00
2022-08-21T00:33:52.979Z,0.00
2022-08-21T00:34:52.930Z,0.00
2022-08-21T00:35:52.880Z,0.00
2022-08-21T00:36:52.832Z,0.00
2022-08-21T00:37:52.784Z,0.00
2022-08-21T00:38:52.775Z,0.00
2022-08-21T00:39:52.725Z,0.00
2022-08-21T00:40:52.639Z,0.00
2022-08-21T00:41:52.589Z,0.00
2022-08-21T00:42:59.231Z,0.00
2022-08-21T00:43:52.491Z,0.00
2022-08-21T00:44:52.444Z,0.00
2022-08-21T00:45:52.393Z,0.00
2022-08-21T00:46:52.351Z,0.00
2022-08-21T00:47:52.299Z,0.00
2022-08-21T00:48:52.248Z,0.00
2022-08-21T00:49:52.241Z,0.00
2022-08-21T00:50:52.152Z,0.00
2022-08-21T00:51:52.100Z,0.00
2022-08-21T00:52:52.061Z,0.00
2022-08-21T00:53:53.678Z,0.00
2022-08-21T00:54:51.955Z,0.00
2022-08-21T00:55:51.906Z,0.00
2022-08-21T00:56:51.857Z,0.00
2022-08-21T00:57:51.808Z,0.00
2022-08-21T00:58:53.105Z,0.00
2022-08-21T00:59:51.710Z,0.00
2022-08-21T01:00:51.684Z,0.00
2022-08-21T01:01:51.613Z,0.00
2022-08-21T01:02:51.605Z,0.00
2022-08-21T01:03:51.517Z,0.00
2022-08-21T01:04:51.471Z,0.00
2022-08-21T01:05:51.419Z,0.00
2022-08-21T01:06:51.371Z,0.00
2022-08-21T01:07:51.321Z,0.00
2022-08-21T01:08:51.273Z,0.00
2022-08-21T01:09:51.224Z,0.00
2022-08-21T01:10:51.178Z,0.00
2022-08-21T01:11:51.132Z,0.00
2022-08-21T01:12:51.124Z,0.00
2022-08-21T01:13:51.027Z,0.00
2022-08-21T01:14:50.981Z,0.00
2022-08-21T01:15:50.933Z,0.00
2022-08-21T01:16:50.882Z,0.00
2022-08-21T01:17:50.833Z,0.00
2022-08-21T01:18:50.786Z,0.00
2022-08-21T01:19:50.741Z,0.00
2022-08-21T01:20:50.690Z,0.00
2022-08-21T01:21:50.641Z,0.00
2022-08-21T01:22:50.590Z,0.00
2022-08-21T01:23:50.541Z,0.00
2022-08-21T01:24:50.492Z,0.00
2022-08-21T01:25:50.443Z,0.00
2022-08-21T01:26:50.399Z,0.00
2022-08-21T01:27:50.345Z,0.00
2022-08-21T01:28:50.301Z,0.00
2022-08-21T01:29:50.247Z,0.00
2022-08-21T01:30:50.200Z,0.00
2022-08-21T01:31:50.151Z,0.00
2022-08-21T01:32:50.107Z,0.00
2022-08-21T01:33:50.052Z,0.00
2022-08-21T01:34:50.009Z,0.00
2022-08-21T01:35:49.954Z,0.00
2022-08-21T01:36:49.908Z,0.00
2022-08-21T01:37:49.912Z,0.00
2022-08-21T01:38:49.812Z,0.00
2022-08-21T01:39:49.833Z,0.00
2022-08-21T01:40:49.719Z,0.00
2022-08-21T01:41:49.661Z,0.00
2022-08-21T01:42:49.614Z,0.00
2022-08-21T01:43:49.573Z,0.00
2022-08-21T01:44:49.518Z,0.00
2022-08-21T01:45:49.465Z,0.00
2022-08-21T01:46:49.421Z,0.00
2022-08-21T01:47:49.369Z,0.00
2022-08-21T01:48:49.325Z,0.00
2022-08-21T01:49:49.271Z,0.00
2022-08-21T01:50:49.226Z,0.00
2022-08-21T01:51:49.177Z,0.00
2022-08-21T01:52:49.126Z,0.00
2022-08-21T01:53:49.076Z,0.00
2022-08-21T01:54:55.040Z,0.00
2022-08-21T01:55:48.979Z,0.00
2022-08-21T01:56:48.929Z,0.00
2022-08-21T01:57:48.883Z,0.00
2022-08-21T01:58:48.833Z,0.00
2022-08-21T01:59:48.782Z,0.00
2022-08-21T02:00:48.829Z,0.00
2022-08-21T02:01:48.685Z,0.00
2022-08-21T02:02:48.635Z,0.00
2022-08-21T02:03:48.595Z,0.00
2022-08-21T02:04:48.539Z,0.00
2022-08-21T02:05:48.490Z,0.00
2022-08-21T02:06:48.453Z,0.00
2022-08-21T02:07:48.391Z,0.00
2022-08-21T02:08:48.350Z,0.00
2022-08-21T02:09:48.292Z,0.00
2022-08-21T02:10:49.188Z,0.00
2022-08-21T02:11:48.197Z,0.00
2022-08-21T02:12:48.147Z,0.00
2022-08-21T02:13:48.097Z,0.00
2022-08-21T02:14:48.048Z,0.00
2022-08-21T02:15:47.999Z,0.00
2022-08-21T02:16:47.951Z,0.00
2022-08-21T02:17:47.901Z,0.00
2022-08-21T02:18:47.853Z,0.00
2022-08-21T02:19:47.803Z,0.00
2022-08-21T02:20:47.755Z,0.00
2022-08-21T02:21:47.705Z,0.00
2022-08-21T02:22:47.659Z,0.00
2022-08-21T02:23:47.606Z,0.00
2022-08-21T02:24:54.144Z,0.00
2022-08-21T02:25:47.510Z,0.00
2022-08-21T02:26:47.464Z,0.00
2022-08-21T02:27:47.497Z,0.00
2022-08-21T02:28:47.363Z,0.00
2022-08-21T02:29:47.408Z,0.00
2022-08-21T02:30:47.266Z,0.00
2022-08-21T02:31:47.217Z,0.00
2022-08-21T02:32:47.168Z,0.00
2022-08-21T02:33:47.117Z,0.00
2022-08-21T02:34:47.073Z,0.00
2022-08-21T02:35:47.025Z,0.00
2022-08-21T02:36:46.976Z,0.00
2022-08-21T02:37:46.920Z,0.00
2022-08-21T02:38:46.876Z,0.00
2022-08-21T02:39:46.869Z,0.00
2022-08-21T02:40:48.068Z,0.00
2022-08-21T02:41:46.724Z,0.00
2022-08-21T02:42:46.678Z,0.00
2022-08-21T02:43:46.628Z,0.00
2022-08-21T02:44:46.579Z,0.00
2022-08-21T02:45:49.189Z,0.00
2022-08-21T02:46:46.481Z,0.00
2022-08-21T02:47:49.192Z,0.00
2022-08-21T02:48:46.383Z,0.00
2022-08-21T02:49:46.333Z,0.00
2022-08-21T02:50:46.287Z,0.00
2022-08-21T02:51:46.234Z,0.00
2022-08-21T02:52:46.187Z,0.00
2022-08-21T02:53:46.139Z,0.00
2022-08-21T02:54:46.096Z,0.00
2022-08-21T02:55:46.041Z,0.00
2022-08-21T02:56:45.991Z,0.00
2022-08-21T02:57:45.941Z,0.00
2022-08-21T02:58:45.893Z,0.00
2022-08-21T02:59:45.847Z,0.00
2022-08-21T03:00:45.798Z,0.00
2022-08-21T03:01:45.793Z,0.00
2022-08-21T03:02:45.697Z,0.00
2022-08-21T03:03:45.647Z,0.00
2022-08-21T03:04:46.836Z,0.00
2022-08-21T03:05:45.547Z,0.00
2022-08-21T03:06:45.500Z,0.00
2022-08-21T03:07:45.454Z,0.00
2022-08-21T03:08:45.399Z,0.00
2022-08-21T03:09:55.326Z,0.00
2022-08-21T03:10:45.306Z,0.00
2022-08-21T03:11:45.256Z,0.00
2022-08-21T03:12:45.205Z,0.00
2022-08-21T03:13:45.157Z,0.00
2022-08-21T03:14:45.163Z,0.00
2022-08-21T03:15:45.059Z,0.00
2022-08-21T03:16:45.007Z,0.00
2022-08-21T03:17:44.960Z,0.00
2022-08-21T03:18:44.910Z,0.00
2022-08-21T03:19:44.863Z,0.00
2022-08-21T03:20:44.812Z,0.00
2022-08-21T03:21:44.768Z,0.00
2022-08-21T03:22:48.498Z,0.00
2022-08-21T03:23:44.666Z,0.00
2022-08-21T03:24:44.614Z,0.00
2022-08-21T03:25:44.574Z,0.00
2022-08-21T03:26:44.517Z,0.00
2022-08-21T03:27:44.471Z,0.00
2022-08-21T03:28:44.418Z,0.00
2022-08-21T03:29:44.371Z,0.00
2022-08-21T03:30:44.321Z,0.00
2022-08-21T03:31:44.276Z,0.00
2022-08-21T03:32:44.221Z,0.00
2022-08-21T03:33:44.174Z,0.00
2022-08-21T03:34:44.123Z,0.00
2022-08-21T03:35:44.083Z,0.00
2022-08-21T03:36:44.024Z,0.00
2022-08-21T03:37:43.977Z,0.00
2022-08-21T03:38:43.926Z,0.00
2022-08-21T03:39:43.915Z,0.00
2022-08-21T03:40:43.827Z,0.00
2022-08-21T03:41:43.785Z,0.00
2022-08-21T03:42:43.731Z,0.00
2022-08-21T03:43:43.683Z,0.00
2022-08-21T03:44:43.630Z,0.00
2022-08-21T03:45:43.584Z,0.00
2022-08-21T03:46:43.535Z,0.00
2022-08-21T03:47:43.488Z,0.00
2022-08-21T03:48:43.433Z,0.00
2022-08-21T03:49:43.386Z,0.00
2022-08-21T03:50:43.336Z,0.00
2022-08-21T03:51:43.289Z,0.00
2022-08-21T03:52:43.241Z,0.00
2022-08-21T03:53:43.189Z,0.00
2022-08-21T03:54:43.141Z,0.00
2022-08-21T03:55:43.095Z,0.00
2022-08-21T03:56:43.040Z,0.00
2022-08-21T03:57:42.994Z,0.00
2022-08-21T03:58:42.946Z,0.00
2022-08-21T03:59:42.897Z,0.00
2022-08-21T04:00:42.850Z,0.00
2022-08-21T04:01:42.857Z,0.00
2022-08-21T04:02:42.745Z,0.00
2022-08-21T04:03:42.698Z,0.00
2022-08-21T04:04:42.648Z,0.00
2022-08-21T04:05:42.601Z,0.00
2022-08-21T04:06:42.548Z,0.00
2022-08-21T04:07:42.502Z,0.00
2022-08-21T04:08:42.452Z,0.00
2022-08-21T04:09:42.405Z,0.00
2022-08-21T04:10:42.351Z,0.00
2022-08-21T04:11:42.306Z,0.00
2022-08-21T04:12:42.253Z,0.00
2022-08-21T04:13:44.686Z,0.00
2022-08-21T04:14:42.154Z,0.00
2022-08-21T04:15:42.107Z,0.00
2022-08-21T04:16:42.054Z,0.00
2022-08-21T04:17:42.008Z,0.00
2022-08-21T04:18:41.958Z,0.00
2022-08-21T04:19:41.910Z,0.00
2022-08-21T04:20:41.857Z,0.00
2022-08-21T04:21:41.813Z,0.00
2022-08-21T04:22:41.760Z,0.00
2022-08-21T04:23:41.714Z,0.00
2022-08-21T04:24:41.661Z,0.00
2022-08-21T04:25:41.614Z,0.00
2022-08-21T04:26:41.566Z,0.00
2022-08-21T04:27:41.516Z,0.00
2022-08-21T04:28:41.464Z,0.00
2022-08-21T04:29:41.416Z,0.00
2022-08-21T04:30:41.367Z,0.00
2022-08-21T04:31:41.318Z,0.00
2022-08-21T04:32:41.267Z,0.00
2022-08-21T04:33:41.222Z,0.00
2022-08-21T04:34:41.169Z,0.00
2022-08-21T04:35:41.123Z,0.00
2022-08-21T04:36:41.071Z,0.00
2022-08-21T04:37:42.028Z,0.00
2022-08-21T04:38:44.480Z,0.00
2022-08-21T04:39:40.961Z,0.00
2022-08-21T04:40:40.872Z,0.00
2022-08-21T04:41:40.824Z,0.00
2022-08-21T04:42:40.777Z,0.00
2022-08-21T04:43:40.727Z,0.00
2022-08-21T04:44:40.675Z,0.00
2022-08-21T04:45:40.627Z,0.00
2022-08-21T04:46:40.580Z,0.00
2022-08-21T04:47:46.820Z,0.00
2022-08-21T04:48:40.480Z,0.00
2022-08-21T04:49:40.431Z,0.00
2022-08-21T04:50:40.379Z,0.00
2022-08-21T04:51:40.331Z,0.00
2022-08-21T04:52:40.279Z,0.00
2022-08-21T04:53:40.231Z,0.00
2022-08-21T04:54:40.181Z,0.00
2022-08-21T04:55:40.134Z,0.00
2022-08-21T04:56:40.082Z,4.00
2022-08-21T04:57:49.234Z,4.00
2022-08-21T04:58:39.983Z,4.00
2022-08-21T04:59:39.938Z,4.00
2022-08-21T05:00:39.884Z,4.00
2022-08-21T05:01:39.906Z,0.00
2022-08-21T05:02:39.786Z,0.00
2022-08-21T05:03:39.738Z,0.00
2022-08-21T05:04:39.687Z,0.00
2022-08-21T05:05:39.643Z,0.00
2022-08-21T05:06:39.591Z,4.00
2022-08-21T05:07:42.136Z,4.00
2022-08-21T05:08:39.490Z,4.00
2022-08-21T05:09:39.441Z,4.00
2022-08-21T05:10:39.392Z,4.00
2022-08-21T05:11:39.345Z,4.00
2022-08-21T05:12:39.295Z,4.00
2022-08-21T05:13:39.245Z,4.00
2022-08-21T05:14:39.194Z,4.00
2022-08-21T05:15:39.146Z,0.00
2022-08-21T05:16:39.094Z,0.00
2022-08-21T05:17:39.049Z,4.00
2022-08-21T05:18:38.999Z,4.00
2022-08-21T05:19:38.949Z,4.00
2022-08-21T05:20:38.896Z,4.00
2022-08-21T05:21:38.849Z,4.00
2022-08-21T05:22:38.797Z,4.00
2022-08-21T05:23:38.751Z,4.00
2022-08-21T05:24:38.699Z,4.00
2022-08-21T05:25:38.651Z,4.00
2022-08-21T05:26:45.949Z,4.00
2022-08-21T05:27:39.013Z,8.00
2022-08-21T05:28:38.504Z,8.00
2022-08-21T05:29:38.453Z,8.00
2022-08-21T05:30:38.402Z,4.00
2022-08-21T05:31:38.360Z,4.00
2022-08-21T05:32:38.303Z,4.00
2022-08-21T05:33:38.266Z,8.00
2022-08-21T05:34:38.205Z,8.00
2022-08-21T05:35:38.158Z,8.00
2022-08-21T05:36:38.105Z,8.00
2022-08-21T05:37:38.058Z,8.00
2022-08-21T05:38:38.009Z,8.00
2022-08-21T05:40:20.550Z,8.00
2022-08-21T05:40:37.935Z,8.00
2022-08-21T05:41:37.861Z,12.00
2022-08-21T05:42:37.809Z,8.00
2022-08-21T05:43:37.761Z,8.00
2022-08-21T05:44:37.719Z,8.00
2022-08-21T05:45:43.289Z,8.00
2022-08-21T05:46:37.619Z,8.00
2022-08-21T05:47:37.564Z,8.00
2022-08-21T05:48:37.512Z,8.00
2022-08-21T05:49:37.470Z,8.00
2022-08-21T05:50:37.413Z,8.00
2022-08-21T05:51:37.367Z,12.00
2022-08-21T05:52:37.315Z,12.00
2022-08-21T05:53:37.266Z,12.00
2022-08-21T05:54:37.216Z,8.00
2022-08-21T05:55:40.203Z,8.00
2022-08-21T05:56:37.116Z,8.00
2022-08-21T05:57:37.073Z,8.00
2022-08-21T05:58:37.017Z,8.00
2022-08-21T05:59:36.975Z,8.00
2022-08-21T06:00:36.921Z,8.00
2022-08-21T06:01:36.973Z,8.00
2022-08-21T06:02:36.820Z,12.00
2022-08-21T06:03:36.771Z,12.00
2022-08-21T06:04:36.721Z,12.00
2022-08-21T06:05:37.692Z,12.00
2022-08-21T06:06:36.620Z,12.00
2022-08-21T06:07:36.577Z,12.00
2022-08-21T06:08:36.521Z,12.00
2022-08-21T06:09:36.474Z,12.00
2022-08-21T06:10:36.424Z,8.00
2022-08-21T06:11:36.379Z,8.00
2022-08-21T06:12:36.323Z,12.00
2022-08-21T06:13:36.275Z,12.00
2022-08-21T06:14:36.225Z,12.00
2022-08-21T06:15:36.177Z,12.00
2022-08-21T06:16:36.125Z,12.00
2022-08-21T06:17:36.078Z,12.00
2022-08-21T06:18:36.027Z,12.00
2022-08-21T06:19:35.980Z,12.00
2022-08-21T06:20:35.927Z,12.00
2022-08-21T06:21:35.879Z,12.00
2022-08-21T06:22:35.829Z,12.00
2022-08-21T06:23:35.780Z,16.00
2022-08-21T06:24:35.730Z,16.00
2022-08-21T06:25:35.681Z,12.00
2022-08-21T06:26:35.631Z,12.00
2022-08-21T06:27:35.582Z,12.00
2022-08-21T06:28:35.534Z,12.00
2022-08-21T06:29:44.133Z,12.00
2022-08-21T06:30:35.432Z,12.00
2022-08-21T06:31:35.387Z,12.00
2022-08-21T06:32:35.334Z,12.00
2022-08-21T06:33:35.286Z,12.00
2022-08-21T06:34:35.234Z,12.00
2022-08-21T06:35:35.187Z,16.00
2022-08-21T06:36:35.135Z,16.00
2022-08-21T06:37:35.090Z,16.00
2022-08-21T06:38:35.036Z,16.00
2022-08-21T06:39:35.013Z,12.00
2022-08-21T06:40:35.220Z,12.00
2022-08-21T06:41:39.074Z,12.00
2022-08-21T06:42:34.839Z,12.00
2022-08-21T06:43:39.827Z,12.00
2022-08-21T06:44:34.741Z,16.00
2022-08-21T06:45:34.692Z,16.00
2022-08-21T06:46:34.640Z,16.00
2022-08-21T06:47:34.591Z,16.00
2022-08-21T06:48:34.544Z,16.00
2022-08-21T06:49:34.492Z,16.00
2022-08-21T06:50:34.453Z,16.00
2022-08-21T06:51:34.395Z,16.00
2022-08-21T06:52:34.341Z,16.00
2022-08-21T06:53:34.296Z,16.00
2022-08-21T06:54:34.244Z,12.00
2022-08-21T06:55:34.200Z,16.00
2022-08-21T06:56:34.146Z,16.00
2022-08-21T06:57:34.098Z,16.00
2022-08-21T06:58:34.045Z,16.00
2022-08-21T06:59:34.002Z,16.00
2022-08-21T07:00:33.955Z,16.00
2022-08-21T07:01:33.949Z,16.00
2022-08-21T07:02:33.847Z,16.00
2022-08-21T07:03:33.815Z,16.00
2022-08-21T07:04:33.748Z,16.00
2022-08-21T07:05:33.700Z,16.00
2022-08-21T07:06:34.043Z,20.00
2022-08-21T07:07:33.601Z,20.00
2022-08-21T07:08:33.552Z,20.00
2022-08-21T07:09:33.503Z,16.00
2022-08-21T07:10:33.451Z,16.00
2022-08-21T07:11:39.425Z,16.00
2022-08-21T07:12:33.352Z,16.00
2022-08-21T07:13:33.303Z,16.00
2022-08-21T07:14:33.257Z,16.00
2022-08-21T07:15:33.205Z,16.00
2022-08-21T07:16:33.154Z,20.00
2022-08-21T07:17:33.105Z,20.00
2022-08-21T07:18:33.057Z,20.00
2022-08-21T07:19:33.007Z,20.00
2022-08-21T07:20:32.955Z,20.00
2022-08-21T07:21:32.907Z,20.00
2022-08-21T07:22:32.861Z,20.00
2022-08-21T07:23:32.828Z,16.00
2022-08-21T07:24:32.760Z,16.00
2022-08-21T07:25:32.721Z,16.00
2022-08-21T07:26:32.692Z,16.00
2022-08-21T07:27:32.616Z,16.00
2022-08-21T07:28:32.562Z,20.00
2022-08-21T07:29:32.510Z,20.00
2022-08-21T07:30:32.462Z,20.00
2022-08-21T07:31:32.414Z,20.00
2022-08-21T07:32:32.363Z,20.00
2022-08-21T07:33:32.312Z,20.00
2022-08-21T07:34:32.265Z,20.00
2022-08-21T07:35:32.215Z,20.00
2022-08-21T07:36:33.231Z,20.00
2022-08-21T07:37:32.116Z,20.00
2022-08-21T07:38:32.066Z,20.00
2022-08-21T07:39:32.016Z,20.00
2022-08-21T07:40:31.967Z,20.00
2022-08-21T07:41:31.915Z,20.00
2022-08-21T07:42:31.868Z,20.00
2022-08-21T07:43:31.819Z,20.00
2022-08-21T07:44:31.770Z,20.00
2022-08-21T07:45:31.718Z,20.00
2022-08-21T07:46:31.670Z,20.00
2022-08-21T07:47:42.104Z,20.00
2022-08-21T07:48:31.571Z,20.00
2022-08-21T07:49:31.630Z,20.00
2022-08-21T07:50:31.474Z,20.00
2022-08-21T07:51:31.424Z,20.00
2022-08-21T07:52:32.029Z,20.00
2022-08-21T07:53:31.322Z,20.00
2022-08-21T07:54:33.624Z,20.00
2022-08-21T07:55:31.226Z,24.00
2022-08-21T07:56:31.177Z,24.00
2022-08-21T07:57:31.125Z,24.00
2022-08-21T07:58:31.077Z,24.00
2022-08-21T07:59:31.773Z,24.00
2022-08-21T08:00:30.980Z,24.00
2022-08-21T08:01:30.991Z,24.00
2022-08-21T08:02:30.893Z,24.00
2022-08-21T08:03:30.828Z,24.00
2022-08-21T08:04:30.783Z,20.00
2022-08-21T08:05:30.728Z,24.00
2022-08-21T08:06:30.681Z,20.00
2022-08-21T08:07:30.632Z,20.00
2022-08-21T08:08:30.582Z,20.00
2022-08-21T08:09:30.534Z,20.00
2022-08-21T08:10:45.283Z,20.00
2022-08-21T08:11:30.433Z,20.00
2022-08-21T08:12:30.406Z,20.00
2022-08-21T08:13:30.333Z,20.00
2022-08-21T08:14:31.671Z,20.00
2022-08-21T08:15:32.394Z,24.00
2022-08-21T08:16:30.186Z,24.00
2022-08-21T08:17:30.135Z,24.00
2022-08-21T08:18:30.088Z,24.00
2022-08-21T08:19:30.055Z,24.00
2022-08-21T08:20:29.989Z,24.00
2022-08-21T08:21:29.939Z,24.00
2022-08-21T08:22:29.936Z,24.00
2022-08-21T08:23:29.839Z,24.00
2022-08-21T08:24:29.791Z,24.00
2022-08-21T08:25:36.227Z,24.00
2022-08-21T08:26:29.694Z,24.00
2022-08-21T08:27:29.643Z,24.00
2022-08-21T08:28:29.593Z,24.00
2022-08-21T08:29:29.542Z,20.00
2022-08-21T08:30:33.009Z,20.00
2022-08-21T08:31:29.446Z,24.00
2022-08-21T08:32:29.395Z,24.00
2022-08-21T08:33:29.369Z,24.00
2022-08-21T08:34:29.298Z,24.00
2022-08-21T08:35:29.246Z,24.00
2022-08-21T08:36:29.228Z,24.00
2022-08-21T08:37:34.608Z,24.00
2022-08-21T08:38:29.099Z,24.00
2022-08-21T08:39:29.608Z,24.00
2022-08-21T08:40:29.003Z,24.00
2022-08-21T08:41:30.772Z,24.00
2022-08-21T08:42:33.573Z,24.00
2022-08-21T08:43:28.851Z,24.00
2022-08-21T08:44:29.691Z,24.00
2022-08-21T08:45:28.754Z,24.00
2022-08-21T08:46:28.707Z,24.00
2022-08-21T08:47:28.653Z,24.00
2022-08-21T08:48:28.608Z,24.00
2022-08-21T08:49:28.558Z,24.00
2022-08-21T08:50:28.508Z,28.00
2022-08-21T08:51:28.455Z,28.00
2022-08-21T08:52:28.407Z,28.00
2022-08-21T08:53:28.357Z,28.00
2022-08-21T08:54:28.309Z,28.00
2022-08-21T08:55:28.259Z,28.00
2022-08-21T08:56:28.211Z,28.00
2022-08-21T08:57:28.160Z,28.00
2022-08-21T08:58:28.112Z,28.00
2022-08-21T08:59:28.063Z,24.00
2022-08-21T09:00:28.015Z,24.00
2022-08-21T09:01:28.015Z,24.00
2022-08-21T09:02:27.914Z,24.00
2022-08-21T09:03:27.865Z,24.00
2022-08-21T09:04:27.824Z,24.00
2022-08-21T09:05:27.769Z,24.00
2022-08-21T09:06:27.718Z,24.00
2022-08-21T09:07:27.667Z,24.00
2022-08-21T09:08:27.622Z,24.00
2022-08-21T09:09:27.568Z,28.00
2022-08-21T09:10:27.525Z,28.00
2022-08-21T09:11:27.471Z,28.00
2022-08-21T09:12:27.420Z,28.00
2022-08-21T09:13:27.402Z,28.00
2022-08-21T09:14:27.441Z,28.00
2022-08-21T09:15:27.288Z,28.00
2022-08-21T09:16:27.223Z,28.00
2022-08-21T09:17:27.175Z,28.00
2022-08-21T09:18:27.124Z,28.00
2022-08-21T09:19:27.075Z,28.00
2022-08-21T09:20:27.028Z,28.00
2022-08-21T09:21:26.975Z,28.00
2022-08-21T09:22:26.927Z,28.00
2022-08-21T09:23:26.893Z,28.00
2022-08-21T09:24:26.828Z,28.00
2022-08-21T09:25:26.780Z,28.00
2022-08-21T09:26:26.732Z,28.00
2022-08-21T09:27:26.686Z,28.00
2022-08-21T09:28:26.631Z,28.00
2022-08-21T09:29:26.581Z,28.00
2022-08-21T09:30:26.545Z,28.00
2022-08-21T09:31:26.482Z,28.00
2022-08-21T09:32:37.117Z,28.00
2022-08-21T09:33:26.383Z,28.00
2022-08-21T09:34:26.342Z,28.00
2022-08-21T09:35:26.288Z,28.00
2022-08-21T09:36:26.237Z,28.00
2022-08-21T09:37:26.188Z,28.00
2022-08-21T09:38:26.139Z,28.00
2022-08-21T09:39:26.088Z,28.00
2022-08-21T09:40:26.116Z,28.00
2022-08-21T09:41:25.991Z,28.00
2022-08-21T09:42:25.946Z,28.00
2022-08-21T09:43:25.899Z,28.00
2022-08-21T09:44:25.845Z,28.00
2022-08-21T09:45:25.792Z,32.00
2022-08-21T09:46:25.752Z,32.00
2022-08-21T09:47:26.914Z,32.00
2022-08-21T09:48:26.893Z,28.00
2022-08-21T09:49:25.595Z,28.00
2022-08-21T09:50:25.552Z,28.00
2022-08-21T09:51:25.497Z,28.00
2022-08-21T09:52:25.463Z,28.00
2022-08-21T09:53:25.402Z,28.00
2022-08-21T09:54:25.351Z,28.00
2022-08-21T09:55:25.299Z,28.00
2022-08-21T09:56:25.271Z,28.00
2022-08-21T09:57:25.202Z,28.00
2022-08-21T09:58:25.158Z,28.00
2022-08-21T09:59:25.104Z,28.00
2022-08-21T10:00:25.060Z,28.00
2022-08-21T10:01:25.125Z,28.00
2022-08-21T10:02:24.956Z,28.00
2022-08-21T10:03:24.908Z,28.00
2022-08-21T10:04:24.859Z,28.00
2022-08-21T10:05:24.808Z,28.00
2022-08-21T10:06:24.794Z,28.00
2022-08-21T10:07:24.710Z,28.00
2022-08-21T10:08:24.663Z,32.00
2022-08-21T10:09:24.611Z,32.00
2022-08-21T10:10:24.563Z,32.00
2022-08-21T10:11:24.516Z,32.00
2022-08-21T10:12:24.465Z,36.00
2022-08-21T10:13:24.413Z,36.00
2022-08-21T10:14:24.368Z,32.00
2022-08-21T10:15:24.317Z,32.00
2022-08-21T10:16:24.269Z,36.00
2022-08-21T10:17:24.222Z,36.00
2022-08-21T10:18:24.170Z,36.00
2022-08-21T10:19:24.120Z,32.00
2022-08-21T10:20:24.071Z,32.00
2022-08-21T10:21:24.020Z,32.00
2022-08-21T10:22:23.973Z,32.00
2022-08-21T10:23:23.923Z,32.00
2022-08-21T10:24:31.615Z,28.00
2022-08-21T10:25:23.831Z,32.00
2022-08-21T10:26:23.775Z,32.00
2022-08-21T10:27:23.728Z,32.00
2022-08-21T10:28:23.677Z,32.00
2022-08-21T10:29:23.627Z,36.00
2022-08-21T10:30:23.580Z,32.00
2022-08-21T10:31:23.537Z,36.00
2022-08-21T10:32:26.460Z,36.00
2022-08-21T10:33:23.431Z,36.00
2022-08-21T10:34:23.386Z,36.00
2022-08-21T10:35:23.337Z,36.00
2022-08-21T10:36:23.284Z,36.00
2022-08-21T10:37:23.237Z,36.00
2022-08-21T10:38:46.208Z,36.00
2022-08-21T10:39:34.903Z,32.00
2022-08-21T10:40:23.168Z,32.00
2022-08-21T10:41:23.038Z,32.00
2022-08-21T10:42:27.956Z,32.00
2022-08-21T10:43:22.943Z,36.00
2022-08-21T10:44:22.893Z,36.00
2022-08-21T10:45:22.841Z,36.00
2022-08-21T10:46:22.795Z,40.00
2022-08-21T10:47:22.745Z,36.00
2022-08-21T10:48:22.697Z,40.00
2022-08-21T10:49:22.647Z,40.00
2022-08-21T10:50:22.597Z,40.00
2022-08-21T10:51:28.910Z,40.00
2022-08-21T10:52:22.534Z,40.00
2022-08-21T10:53:22.450Z,40.00
2022-08-21T10:54:23.594Z,36.00
2022-08-21T10:55:22.353Z,36.00
2022-08-21T10:56:22.301Z,36.00
2022-08-21T10:57:29.812Z,40.00
2022-08-21T10:58:22.210Z,40.00
2022-08-21T10:59:22.153Z,40.00
2022-08-21T11:00:22.106Z,40.00
2022-08-21T11:01:22.088Z,36.00
2022-08-21T11:02:22.011Z,40.00
2022-08-21T11:03:21.959Z,36.00
2022-08-21T11:04:21.915Z,40.00
2022-08-21T11:05:21.860Z,36.00
2022-08-21T11:06:21.812Z,36.00
2022-08-21T11:07:21.763Z,36.00
2022-08-21T11:08:21.716Z,36.00
2022-08-21T11:09:21.662Z,36.00
2022-08-21T11:10:21.617Z,40.00
2022-08-21T11:11:22.239Z,36.00
2022-08-21T11:12:21.517Z,40.00
2022-08-21T11:13:21.467Z,44.00
2022-08-21T11:14:21.420Z,44.00
2022-08-21T11:15:29.654Z,44.00
2022-08-21T11:16:21.323Z,48.00
2022-08-21T11:17:22.097Z,48.00
2022-08-21T11:18:21.223Z,44.00
2022-08-21T11:19:21.174Z,48.00
2022-08-21T11:20:21.125Z,48.00
2022-08-21T11:21:21.077Z,48.00
2022-08-21T11:22:21.029Z,48.00
2022-08-21T11:23:20.977Z,44.00
2022-08-21T11:24:20.934Z,48.00
2022-08-21T11:25:20.880Z,44.00
2022-08-21T11:26:20.832Z,44.00
2022-08-21T11:27:20.782Z,44.00
2022-08-21T11:28:20.733Z,44.00
2022-08-21T11:29:20.684Z,40.00
2022-08-21T11:30:20.641Z,44.00
2022-08-21T11:31:20.587Z,44.00
2022-08-21T11:32:27.339Z,44.00
2022-08-21T11:33:20.489Z,48.00
2022-08-21T11:34:20.446Z,48.00
2022-08-21T11:35:20.392Z,48.00
2022-08-21T11:36:20.344Z,52.00
2022-08-21T11:37:20.294Z,56.00
2022-08-21T11:38:20.242Z,56.00
2022-08-21T11:39:20.196Z,60.00
2022-08-21T11:40:20.190Z,56.00
2022-08-21T11:41:20.097Z,56.00
2022-08-21T11:42:20.049Z,64.00
2022-08-21T11:43:20.000Z,60.00
2022-08-21T11:44:19.967Z,64.00
2022-08-21T11:45:19.901Z,68.00
2022-08-21T11:46:19.872Z,68.00
2022-08-21T11:47:19.805Z,68.00
2022-08-21T11:48:19.752Z,64.00
2022-08-21T11:49:19.707Z,68.00
2022-08-21T11:50:29.675Z,68.00
2022-08-21T11:51:19.609Z,72.00
2022-08-21T11:52:19.560Z,68.00
2022-08-21T11:53:19.510Z,72.00
2022-08-21T11:54:19.461Z,68.00
2022-08-21T11:55:23.472Z,68.00
2022-08-21T11:56:19.362Z,68.00
2022-08-21T11:57:19.317Z,64.00
2022-08-21T11:58:19.274Z,64.00
2022-08-21T11:59:19.217Z,64.00
2022-08-21T12:00:19.166Z,64.00
2022-08-21T12:01:19.118Z,60.00
2022-08-21T12:02:19.125Z,56.00
2022-08-21T12:03:19.023Z,56.00
2022-08-21T12:04:19.015Z,56.00
2022-08-21T12:05:25.845Z,56.00
2022-08-21T12:06:24.501Z,56.00
2022-08-21T12:07:18.827Z,56.00
2022-08-21T12:08:18.778Z,56.00
2022-08-21T12:09:18.732Z,52.00
2022-08-21T12:10:18.679Z,52.00
2022-08-21T12:11:18.630Z,48.00
2022-08-21T12:12:18.582Z,48.00
2022-08-21T12:13:18.534Z,52.00
2022-08-21T12:14:18.485Z,48.00
2022-08-21T12:15:18.437Z,52.00
2022-08-21T12:16:18.391Z,48.00
2022-08-21T12:17:20.373Z,48.00
2022-08-21T12:18:18.287Z,48.00
2022-08-21T12:19:18.241Z,52.00
2022-08-21T12:20:18.189Z,48.00
2022-08-21T12:21:18.142Z,48.00
2022-08-21T12:22:18.092Z,44.00
2022-08-21T12:23:18.045Z,44.00
2022-08-21T12:24:17.996Z,48.00
2022-08-21T12:25:21.558Z,48.00
2022-08-21T12:26:17.917Z,48.00
2022-08-21T12:27:17.850Z,48.00
2022-08-21T12:28:17.799Z,48.00
2022-08-21T12:29:17.751Z,44.00
2022-08-21T12:30:17.708Z,44.00
2022-08-21T12:31:17.656Z,44.00
2022-08-21T12:32:17.603Z,44.00
2022-08-21T12:33:17.558Z,44.00
2022-08-21T12:34:17.507Z,44.00
2022-08-21T12:35:25.429Z,44.00
2022-08-21T12:36:17.410Z,40.00
2022-08-21T12:37:17.364Z,44.00
2022-08-21T12:38:17.313Z,40.00
2022-08-21T12:39:17.266Z,44.00
2022-08-21T12:40:17.278Z,40.00
2022-08-21T12:41:17.936Z,40.00
2022-08-21T12:42:17.117Z,40.00
2022-08-21T12:43:17.070Z,40.00
2022-08-21T12:44:17.023Z,40.00
2022-08-21T12:45:16.973Z,40.00
2022-08-21T12:46:16.922Z,44.00
2022-08-21T12:47:31.852Z,40.00
2022-08-21T12:48:16.825Z,40.00
2022-08-21T12:49:16.779Z,40.00
2022-08-21T12:50:16.727Z,40.00
2022-08-21T12:51:16.680Z,44.00
2022-08-21T12:52:16.630Z,44.00
2022-08-21T12:53:20.305Z,40.00
2022-08-21T12:54:16.535Z,44.00
2022-08-21T12:55:16.485Z,40.00
2022-08-21T12:56:16.438Z,40.00
2022-08-21T12:57:16.388Z,36.00
2022-08-21T12:58:16.339Z,40.00
2022-08-21T12:59:16.292Z,40.00
2022-08-21T13:00:16.254Z,36.00
2022-08-21T13:01:16.229Z,36.00
2022-08-21T13:02:16.197Z,40.00
2022-08-21T13:03:16.096Z,36.00
2022-08-21T13:04:16.046Z,36.00